sensor_id;sensor_type;location;lat;lon;timestamp;P1;durP1;ratioP1;P2;durP2;ratioP2
34832;SDS011;55941;50.800;4.342;2023-01-25T00:01:31;50.97;;;34.28;;
34832;SDS011;55941;50.800;4.342;2023-01-25T00:03:57;50.58;;;36.15;;
34832;SDS011;55941;50.800;4.342;2023-01-25T00:06:23;50.10;;;33.35;;
34832;SDS011;55941;50.800;4.342;2023-01-25T00:08:49;52.90;;;34.55;;
34832;SDS011;55941;50.800;4.342;2023-01-25T00:11:17;54.22;;;36.97;;
34832;SDS011;55941;50.800;4.342;2023-01-25T00:13:44;54.67;;;36.90;;
34832;SDS011;55941;50.800;4.342;2023-01-25T00:16:10;52.05;;;35.22;;
34832;SDS011;55941;50.800;4.342;2023-01-25T00:18:36;55.47;;;37.03;;
34832;SDS011;55941;50.800;4.342;2023-01-25T00:21:19;55.22;;;38.42;;
34832;SDS011;55941;50.800;4.342;2023-01-25T00:23:47;52.53;;;38.55;;
34832;SDS011;55941;50.800;4.342;2023-01-25T00:26:13;50.00;;;34.70;;
34832;SDS011;55941;50.800;4.342;2023-01-25T00:28:39;50.60;;;34.03;;
34832;SDS011;55941;50.800;4.342;2023-01-25T00:31:06;49.92;;;35.28;;
34832;SDS011;55941;50.800;4.342;2023-01-25T00:36:38;49.97;;;35.45;;
34832;SDS011;55941;50.800;4.342;2023-01-25T00:39:06;51.35;;;35.70;;
34832;SDS011;55941;50.800;4.342;2023-01-25T00:41:36;53.30;;;38.33;;
34832;SDS011;55941;50.800;4.342;2023-01-25T00:44:02;49.65;;;35.90;;
34832;SDS011;55941;50.800;4.342;2023-01-25T00:46:28;51.88;;;36.90;;
34832;SDS011;55941;50.800;4.342;2023-01-25T00:48:54;53.88;;;35.92;;
34832;SDS011;55941;50.800;4.342;2023-01-25T00:51:20;53.95;;;36.78;;
34832;SDS011;55941;50.800;4.342;2023-01-25T00:53:47;52.63;;;34.35;;
34832;SDS011;55941;50.800;4.342;2023-01-25T00:56:13;47.80;;;33.70;;
34832;SDS011;55941;50.800;4.342;2023-01-25T00:58:39;48.80;;;33.20;;
34832;SDS011;55941;50.800;4.342;2023-01-25T01:01:05;47.60;;;34.28;;
34832;SDS011;55941;50.800;4.342;2023-01-25T01:03:32;52.85;;;37.15;;
34832;SDS011;55941;50.800;4.342;2023-01-25T01:06:02;54.63;;;35.88;;
34832;SDS011;55941;50.800;4.342;2023-01-25T01:08:31;51.40;;;35.00;;
34832;SDS011;55941;50.800;4.342;2023-01-25T01:11:01;50.78;;;34.60;;
34832;SDS011;55941;50.800;4.342;2023-01-25T01:13:29;48.45;;;35.15;;
34832;SDS011;55941;50.800;4.342;2023-01-25T01:15:55;51.65;;;37.65;;
34832;SDS011;55941;50.800;4.342;2023-01-25T01:18:21;50.35;;;35.60;;
34832;SDS011;55941;50.800;4.342;2023-01-25T01:20:48;49.13;;;35.60;;
34832;SDS011;55941;50.800;4.342;2023-01-25T01:23:15;53.63;;;36.55;;
34832;SDS011;55941;50.800;4.342;2023-01-25T01:25:42;49.05;;;33.80;;
34832;SDS011;55941;50.800;4.342;2023-01-25T01:28:08;44.78;;;32.78;;
34832;SDS011;55941;50.800;4.342;2023-01-25T01:30:35;48.10;;;33.95;;
34832;SDS011;55941;50.800;4.342;2023-01-25T01:33:01;49.45;;;33.25;;
34832;SDS011;55941;50.800;4.342;2023-01-25T01:35:30;50.65;;;33.97;;
34832;SDS011;55941;50.800;4.342;2023-01-25T01:37:56;44.97;;;32.95;;
34832;SDS011;55941;50.800;4.342;2023-01-25T01:40:22;47.35;;;33.83;;
34832;SDS011;55941;50.800;4.342;2023-01-25T01:43:02;47.55;;;33.33;;
34832;SDS011;55941;50.800;4.342;2023-01-25T01:48:37;49.65;;;34.58;;
34832;SDS011;55941;50.800;4.342;2023-01-25T01:54:15;51.65;;;34.58;;
34832;SDS011;55941;50.800;4.342;2023-01-25T01:59:25;48.67;;;35.65;;
34832;SDS011;55941;50.800;4.342;2023-01-25T02:04:21;53.30;;;34.53;;
34832;SDS011;55941;50.800;4.342;2023-01-25T02:06:53;53.55;;;37.08;;
34832;SDS011;55941;50.800;4.342;2023-01-25T02:09:39;54.40;;;36.97;;
34832;SDS011;55941;50.800;4.342;2023-01-25T02:12:05;53.72;;;36.35;;
34832;SDS011;55941;50.800;4.342;2023-01-25T02:14:33;59.03;;;37.95;;
34832;SDS011;55941;50.800;4.342;2023-01-25T02:17:02;51.35;;;35.88;;
34832;SDS011;55941;50.800;4.342;2023-01-25T02:22:13;51.85;;;35.92;;
34832;SDS011;55941;50.800;4.342;2023-01-25T02:24:46;51.22;;;36.17;;
34832;SDS011;55941;50.800;4.342;2023-01-25T02:27:18;51.78;;;36.15;;
34832;SDS011;55941;50.800;4.342;2023-01-25T02:29:44;52.05;;;36.50;;
34832;SDS011;55941;50.800;4.342;2023-01-25T02:32:12;51.35;;;37.47;;
34832;SDS011;55941;50.800;4.342;2023-01-25T02:34:37;56.15;;;38.03;;
34832;SDS011;55941;50.800;4.342;2023-01-25T02:37:03;47.90;;;34.92;;
34832;SDS011;55941;50.800;4.342;2023-01-25T02:39:29;50.47;;;32.17;;
34832;SDS011;55941;50.800;4.342;2023-01-25T02:41:55;45.72;;;32.63;;
34832;SDS011;55941;50.800;4.342;2023-01-25T02:44:28;50.85;;;33.25;;
34832;SDS011;55941;50.800;4.342;2023-01-25T02:46:56;46.33;;;33.55;;
34832;SDS011;55941;50.800;4.342;2023-01-25T02:49:22;53.35;;;35.25;;
34832;SDS011;55941;50.800;4.342;2023-01-25T02:51:51;46.30;;;33.35;;
34832;SDS011;55941;50.800;4.342;2023-01-25T02:54:21;54.90;;;36.65;;
34832;SDS011;55941;50.800;4.342;2023-01-25T02:56:48;55.38;;;37.17;;
34832;SDS011;55941;50.800;4.342;2023-01-25T02:59:14;48.22;;;34.33;;
34832;SDS011;55941;50.800;4.342;2023-01-25T03:01:40;52.65;;;36.78;;
34832;SDS011;55941;50.800;4.342;2023-01-25T03:04:07;48.97;;;36.38;;
34832;SDS011;55941;50.800;4.342;2023-01-25T03:06:34;49.65;;;35.08;;
34832;SDS011;55941;50.800;4.342;2023-01-25T03:09:01;51.22;;;36.05;;
34832;SDS011;55941;50.800;4.342;2023-01-25T03:11:28;52.03;;;35.20;;
34832;SDS011;55941;50.800;4.342;2023-01-25T03:13:53;52.85;;;35.60;;
34832;SDS011;55941;50.800;4.342;2023-01-25T03:16:19;60.28;;;36.45;;
34832;SDS011;55941;50.800;4.342;2023-01-25T03:18:45;45.92;;;33.10;;
34832;SDS011;55941;50.800;4.342;2023-01-25T03:21:12;47.83;;;34.20;;
34832;SDS011;55941;50.800;4.342;2023-01-25T03:23:44;47.47;;;34.67;;
34832;SDS011;55941;50.800;4.342;2023-01-25T03:28:39;46.85;;;35.17;;
34832;SDS011;55941;50.800;4.342;2023-01-25T03:31:06;45.58;;;33.53;;
34832;SDS011;55941;50.800;4.342;2023-01-25T03:33:33;47.53;;;34.90;;
34832;SDS011;55941;50.800;4.342;2023-01-25T03:35:59;45.65;;;34.05;;
34832;SDS011;55941;50.800;4.342;2023-01-25T03:38:25;50.05;;;36.83;;
34832;SDS011;55941;50.800;4.342;2023-01-25T03:40:52;47.40;;;33.92;;
34832;SDS011;55941;50.800;4.342;2023-01-25T03:43:18;49.17;;;35.33;;
34832;SDS011;55941;50.800;4.342;2023-01-25T03:45:44;49.78;;;35.70;;
34832;SDS011;55941;50.800;4.342;2023-01-25T03:48:11;50.70;;;35.00;;
34832;SDS011;55941;50.800;4.342;2023-01-25T03:50:36;46.15;;;34.17;;
34832;SDS011;55941;50.800;4.342;2023-01-25T03:53:03;48.17;;;35.15;;
34832;SDS011;55941;50.800;4.342;2023-01-25T03:55:41;52.55;;;35.70;;
34832;SDS011;55941;50.800;4.342;2023-01-25T03:58:07;48.67;;;34.70;;
34832;SDS011;55941;50.800;4.342;2023-01-25T04:00:32;47.35;;;33.40;;
34832;SDS011;55941;50.800;4.342;2023-01-25T04:02:58;45.13;;;33.13;;
34832;SDS011;55941;50.800;4.342;2023-01-25T04:05:25;47.65;;;34.28;;
34832;SDS011;55941;50.800;4.342;2023-01-25T04:07:51;48.60;;;34.05;;
34832;SDS011;55941;50.800;4.342;2023-01-25T04:10:16;49.67;;;34.72;;
34832;SDS011;55941;50.800;4.342;2023-01-25T04:12:42;46.33;;;34.15;;
34832;SDS011;55941;50.800;4.342;2023-01-25T04:15:08;48.05;;;32.47;;
34832;SDS011;55941;50.800;4.342;2023-01-25T04:17:34;52.80;;;35.35;;
34832;SDS011;55941;50.800;4.342;2023-01-25T04:20:00;44.92;;;33.58;;
34832;SDS011;55941;50.800;4.342;2023-01-25T04:22:26;52.55;;;34.05;;
34832;SDS011;55941;50.800;4.342;2023-01-25T04:24:51;50.72;;;34.00;;
34832;SDS011;55941;50.800;4.342;2023-01-25T04:27:18;49.08;;;33.83;;
34832;SDS011;55941;50.800;4.342;2023-01-25T04:29:44;54.40;;;35.53;;
34832;SDS011;55941;50.800;4.342;2023-01-25T04:32:10;49.70;;;34.13;;
34832;SDS011;55941;50.800;4.342;2023-01-25T04:34:35;49.35;;;35.08;;
34832;SDS011;55941;50.800;4.342;2023-01-25T04:37:01;49.35;;;34.67;;
34832;SDS011;55941;50.800;4.342;2023-01-25T04:39:27;51.67;;;36.58;;
34832;SDS011;55941;50.800;4.342;2023-01-25T04:41:53;50.13;;;34.20;;
34832;SDS011;55941;50.800;4.342;2023-01-25T04:44:18;47.95;;;34.08;;
34832;SDS011;55941;50.800;4.342;2023-01-25T04:46:44;47.15;;;33.70;;
34832;SDS011;55941;50.800;4.342;2023-01-25T04:49:10;50.05;;;33.55;;
34832;SDS011;55941;50.800;4.342;2023-01-25T04:51:36;53.60;;;35.63;;
34832;SDS011;55941;50.800;4.342;2023-01-25T04:54:02;50.22;;;34.95;;
34832;SDS011;55941;50.800;4.342;2023-01-25T04:56:28;49.53;;;34.83;;
34832;SDS011;55941;50.800;4.342;2023-01-25T04:58:54;53.08;;;37.83;;
34832;SDS011;55941;50.800;4.342;2023-01-25T05:01:21;48.30;;;35.03;;
34832;SDS011;55941;50.800;4.342;2023-01-25T05:03:46;51.85;;;37.13;;
34832;SDS011;55941;50.800;4.342;2023-01-25T05:06:12;54.30;;;35.63;;
34832;SDS011;55941;50.800;4.342;2023-01-25T05:08:38;52.28;;;34.42;;
34832;SDS011;55941;50.800;4.342;2023-01-25T05:11:04;51.90;;;34.13;;
34832;SDS011;55941;50.800;4.342;2023-01-25T05:13:30;47.83;;;33.38;;
34832;SDS011;55941;50.800;4.342;2023-01-25T05:15:56;50.65;;;33.67;;
34832;SDS011;55941;50.800;4.342;2023-01-25T05:18:22;56.88;;;36.95;;
34832;SDS011;55941;50.800;4.342;2023-01-25T05:20:52;50.22;;;35.50;;
34832;SDS011;55941;50.800;4.342;2023-01-25T05:23:20;54.85;;;36.78;;
34832;SDS011;55941;50.800;4.342;2023-01-25T05:25:46;47.95;;;34.20;;
34832;SDS011;55941;50.800;4.342;2023-01-25T05:28:30;48.58;;;33.30;;
34832;SDS011;55941;50.800;4.342;2023-01-25T05:30:56;46.17;;;33.17;;
34832;SDS011;55941;50.800;4.342;2023-01-25T05:33:22;51.25;;;36.47;;
34832;SDS011;55941;50.800;4.342;2023-01-25T05:35:49;47.92;;;33.65;;
34832;SDS011;55941;50.800;4.342;2023-01-25T05:38:15;54.08;;;36.65;;
34832;SDS011;55941;50.800;4.342;2023-01-25T05:40:40;53.08;;;35.20;;
34832;SDS011;55941;50.800;4.342;2023-01-25T05:43:07;52.95;;;36.63;;
34832;SDS011;55941;50.800;4.342;2023-01-25T05:45:33;52.10;;;36.03;;
34832;SDS011;55941;50.800;4.342;2023-01-25T05:47:59;50.67;;;35.40;;
34832;SDS011;55941;50.800;4.342;2023-01-25T05:50:25;56.30;;;38.92;;
34832;SDS011;55941;50.800;4.342;2023-01-25T05:52:52;59.72;;;41.33;;
34832;SDS011;55941;50.800;4.342;2023-01-25T05:55:17;57.65;;;39.67;;
34832;SDS011;55941;50.800;4.342;2023-01-25T05:57:44;60.58;;;41.63;;
34832;SDS011;55941;50.800;4.342;2023-01-25T06:00:10;55.75;;;36.97;;
34832;SDS011;55941;50.800;4.342;2023-01-25T06:02:37;56.70;;;39.03;;
34832;SDS011;55941;50.800;4.342;2023-01-25T06:05:03;55.53;;;36.10;;
34832;SDS011;55941;50.800;4.342;2023-01-25T06:07:32;53.00;;;38.58;;
34832;SDS011;55941;50.800;4.342;2023-01-25T06:10:00;68.35;;;45.53;;
34832;SDS011;55941;50.800;4.342;2023-01-25T06:12:27;59.20;;;39.80;;
34832;SDS011;55941;50.800;4.342;2023-01-25T06:14:52;51.70;;;37.38;;
34832;SDS011;55941;50.800;4.342;2023-01-25T06:17:18;53.35;;;37.90;;
34832;SDS011;55941;50.800;4.342;2023-01-25T06:19:44;59.20;;;41.30;;
34832;SDS011;55941;50.800;4.342;2023-01-25T06:22:10;57.92;;;40.40;;
34832;SDS011;55941;50.800;4.342;2023-01-25T06:24:36;64.78;;;42.08;;
34832;SDS011;55941;50.800;4.342;2023-01-25T06:27:02;55.03;;;37.25;;
34832;SDS011;55941;50.800;4.342;2023-01-25T06:29:28;58.65;;;38.22;;
34832;SDS011;55941;50.800;4.342;2023-01-25T06:31:53;53.17;;;37.67;;
34832;SDS011;55941;50.800;4.342;2023-01-25T06:34:19;57.30;;;38.75;;
34832;SDS011;55941;50.800;4.342;2023-01-25T06:36:46;57.97;;;40.53;;
34832;SDS011;55941;50.800;4.342;2023-01-25T06:39:13;59.28;;;41.58;;
34832;SDS011;55941;50.800;4.342;2023-01-25T06:41:40;57.65;;;38.55;;
34832;SDS011;55941;50.800;4.342;2023-01-25T06:44:05;55.05;;;39.15;;
34832;SDS011;55941;50.800;4.342;2023-01-25T06:46:32;56.15;;;37.83;;
34832;SDS011;55941;50.800;4.342;2023-01-25T06:48:58;51.13;;;38.03;;
34832;SDS011;55941;50.800;4.342;2023-01-25T06:51:24;59.70;;;38.20;;
34832;SDS011;55941;50.800;4.342;2023-01-25T06:53:50;57.10;;;39.83;;
34832;SDS011;55941;50.800;4.342;2023-01-25T06:56:18;64.50;;;40.65;;
34832;SDS011;55941;50.800;4.342;2023-01-25T06:58:48;58.20;;;38.58;;
34832;SDS011;55941;50.800;4.342;2023-01-25T07:01:19;53.40;;;36.58;;
34832;SDS011;55941;50.800;4.342;2023-01-25T07:03:47;55.35;;;37.38;;
34832;SDS011;55941;50.800;4.342;2023-01-25T07:06:16;57.15;;;39.45;;
34832;SDS011;55941;50.800;4.342;2023-01-25T07:08:42;69.65;;;43.55;;
34832;SDS011;55941;50.800;4.342;2023-01-25T07:11:09;65.70;;;43.05;;
34832;SDS011;55941;50.800;4.342;2023-01-25T07:13:38;61.85;;;42.65;;
34832;SDS011;55941;50.800;4.342;2023-01-25T07:16:05;70.70;;;42.95;;
34832;SDS011;55941;50.800;4.342;2023-01-25T07:18:32;58.72;;;39.72;;
34832;SDS011;55941;50.800;4.342;2023-01-25T07:21:22;67.20;;;40.38;;
34832;SDS011;55941;50.800;4.342;2023-01-25T07:23:48;61.92;;;38.97;;
34832;SDS011;55941;50.800;4.342;2023-01-25T07:26:15;59.72;;;41.75;;
34832;SDS011;55941;50.800;4.342;2023-01-25T07:28:44;70.18;;;42.90;;
34832;SDS011;55941;50.800;4.342;2023-01-25T07:31:10;70.82;;;44.88;;
34832;SDS011;55941;50.800;4.342;2023-01-25T07:33:37;65.57;;;45.50;;
34832;SDS011;55941;50.800;4.342;2023-01-25T07:36:03;62.10;;;42.75;;
34832;SDS011;55941;50.800;4.342;2023-01-25T07:38:31;65.03;;;42.78;;
34832;SDS011;55941;50.800;4.342;2023-01-25T07:40:58;60.55;;;42.00;;
34832;SDS011;55941;50.800;4.342;2023-01-25T07:43:24;58.85;;;40.22;;
34832;SDS011;55941;50.800;4.342;2023-01-25T07:45:51;57.70;;;38.85;;
34832;SDS011;55941;50.800;4.342;2023-01-25T07:48:18;63.92;;;39.03;;
34832;SDS011;55941;50.800;4.342;2023-01-25T07:50:45;57.13;;;40.85;;
34832;SDS011;55941;50.800;4.342;2023-01-25T07:53:13;57.92;;;37.65;;
34832;SDS011;55941;50.800;4.342;2023-01-25T07:55:41;59.22;;;39.45;;
34832;SDS011;55941;50.800;4.342;2023-01-25T07:58:09;69.38;;;45.38;;
34832;SDS011;55941;50.800;4.342;2023-01-25T08:00:36;69.28;;;45.40;;
34832;SDS011;55941;50.800;4.342;2023-01-25T08:03:02;63.00;;;43.85;;
34832;SDS011;55941;50.800;4.342;2023-01-25T08:05:28;69.80;;;44.30;;
34832;SDS011;55941;50.800;4.342;2023-01-25T08:07:54;62.03;;;42.17;;
34832;SDS011;55941;50.800;4.342;2023-01-25T08:10:20;62.55;;;42.03;;
34832;SDS011;55941;50.800;4.342;2023-01-25T08:12:46;64.50;;;44.17;;
34832;SDS011;55941;50.800;4.342;2023-01-25T08:15:12;65.55;;;43.92;;
34832;SDS011;55941;50.800;4.342;2023-01-25T08:17:38;65.35;;;44.00;;
34832;SDS011;55941;50.800;4.342;2023-01-25T08:20:05;62.92;;;42.75;;
34832;SDS011;55941;50.800;4.342;2023-01-25T08:22:32;60.72;;;42.42;;
34832;SDS011;55941;50.800;4.342;2023-01-25T08:24:58;73.00;;;45.72;;
34832;SDS011;55941;50.800;4.342;2023-01-25T08:27:26;70.57;;;44.80;;
34832;SDS011;55941;50.800;4.342;2023-01-25T08:29:53;58.88;;;40.88;;
34832;SDS011;55941;50.800;4.342;2023-01-25T08:32:19;61.65;;;42.50;;
34832;SDS011;55941;50.800;4.342;2023-01-25T08:34:45;57.80;;;41.08;;
34832;SDS011;55941;50.800;4.342;2023-01-25T08:37:11;60.75;;;41.05;;
34832;SDS011;55941;50.800;4.342;2023-01-25T08:39:37;62.05;;;42.53;;
34832;SDS011;55941;50.800;4.342;2023-01-25T08:42:03;64.82;;;42.85;;
34832;SDS011;55941;50.800;4.342;2023-01-25T08:44:30;60.17;;;42.78;;
34832;SDS011;55941;50.800;4.342;2023-01-25T08:46:56;66.25;;;44.40;;
34832;SDS011;55941;50.800;4.342;2023-01-25T08:49:23;73.30;;;47.10;;
34832;SDS011;55941;50.800;4.342;2023-01-25T08:51:51;68.93;;;44.17;;
34832;SDS011;55941;50.800;4.342;2023-01-25T08:54:17;80.05;;;46.75;;
34832;SDS011;55941;50.800;4.342;2023-01-25T08:56:43;65.43;;;45.38;;
34832;SDS011;55941;50.800;4.342;2023-01-25T08:59:10;69.93;;;46.85;;
34832;SDS011;55941;50.800;4.342;2023-01-25T09:01:36;65.47;;;46.85;;
34832;SDS011;55941;50.800;4.342;2023-01-25T09:04:03;66.57;;;44.58;;
34832;SDS011;55941;50.800;4.342;2023-01-25T09:06:29;71.60;;;45.20;;
34832;SDS011;55941;50.800;4.342;2023-01-25T09:08:55;72.47;;;48.63;;
34832;SDS011;55941;50.800;4.342;2023-01-25T09:11:22;77.28;;;46.97;;
34832;SDS011;55941;50.800;4.342;2023-01-25T09:13:49;67.28;;;48.22;;
34832;SDS011;55941;50.800;4.342;2023-01-25T09:16:16;73.72;;;47.35;;
34832;SDS011;55941;50.800;4.342;2023-01-25T09:18:46;66.65;;;46.47;;
34832;SDS011;55941;50.800;4.342;2023-01-25T09:21:13;77.15;;;51.85;;
34832;SDS011;55941;50.800;4.342;2023-01-25T09:23:41;74.63;;;48.97;;
34832;SDS011;55941;50.800;4.342;2023-01-25T09:28:40;74.85;;;49.58;;
34832;SDS011;55941;50.800;4.342;2023-01-25T09:31:08;86.78;;;53.42;;
34832;SDS011;55941;50.800;4.342;2023-01-25T09:33:38;74.72;;;52.38;;
34832;SDS011;55941;50.800;4.342;2023-01-25T09:36:06;75.47;;;52.35;;
34832;SDS011;55941;50.800;4.342;2023-01-25T09:38:32;77.65;;;53.00;;
34832;SDS011;55941;50.800;4.342;2023-01-25T09:43:49;76.20;;;49.10;;
34832;SDS011;55941;50.800;4.342;2023-01-25T09:46:49;82.50;;;53.20;;
34832;SDS011;55941;50.800;4.342;2023-01-25T09:55:07;85.25;;;53.53;;
34832;SDS011;55941;50.800;4.342;2023-01-25T09:57:39;84.95;;;53.20;;
34832;SDS011;55941;50.800;4.342;2023-01-25T10:00:13;82.15;;;55.85;;
34832;SDS011;55941;50.800;4.342;2023-01-25T10:02:58;86.93;;;56.90;;
34832;SDS011;55941;50.800;4.342;2023-01-25T10:05:57;92.53;;;58.88;;
34832;SDS011;55941;50.800;4.342;2023-01-25T10:10:58;62.38;;;40.38;;
34832;SDS011;55941;50.800;4.342;2023-01-25T10:13:32;90.57;;;56.90;;
34832;SDS011;55941;50.800;4.342;2023-01-25T10:16:02;78.18;;;51.28;;
34832;SDS011;55941;50.800;4.342;2023-01-25T10:18:32;87.57;;;55.78;;
34832;SDS011;55941;50.800;4.342;2023-01-25T10:21:16;89.90;;;54.03;;
34832;SDS011;55941;50.800;4.342;2023-01-25T10:23:52;90.90;;;56.85;;
34832;SDS011;55941;50.800;4.342;2023-01-25T10:26:35;82.40;;;53.97;;
34832;SDS011;55941;50.800;4.342;2023-01-25T10:31:41;94.38;;;60.15;;
34832;SDS011;55941;50.800;4.342;2023-01-25T10:34:20;101.97;;;63.63;;
34832;SDS011;55941;50.800;4.342;2023-01-25T10:37:01;97.07;;;62.30;;
34832;SDS011;55941;50.800;4.342;2023-01-25T10:39:34;93.43;;;59.83;;
34832;SDS011;55941;50.800;4.342;2023-01-25T10:42:06;91.60;;;59.67;;
34832;SDS011;55941;50.800;4.342;2023-01-25T10:44:35;84.85;;;58.22;;
34832;SDS011;55941;50.800;4.342;2023-01-25T10:47:10;92.43;;;60.17;;
34832;SDS011;55941;50.800;4.342;2023-01-25T10:52:25;98.10;;;61.63;;
34832;SDS011;55941;50.800;4.342;2023-01-25T10:55:13;87.40;;;59.70;;
34832;SDS011;55941;50.800;4.342;2023-01-25T10:57:50;94.35;;;60.45;;
34832;SDS011;55941;50.800;4.342;2023-01-25T11:03:05;98.43;;;62.92;;
34832;SDS011;55941;50.800;4.342;2023-01-25T11:05:44;97.78;;;63.83;;
34832;SDS011;55941;50.800;4.342;2023-01-25T11:10:57;94.15;;;61.22;;
34832;SDS011;55941;50.800;4.342;2023-01-25T11:13:25;94.82;;;61.45;;
34832;SDS011;55941;50.800;4.342;2023-01-25T11:18:38;114.18;;;67.13;;
34832;SDS011;55941;50.800;4.342;2023-01-25T11:21:17;106.20;;;63.28;;
34832;SDS011;55941;50.800;4.342;2023-01-25T11:26:31;107.38;;;66.55;;
34832;SDS011;55941;50.800;4.342;2023-01-25T11:31:44;102.53;;;62.13;;
34832;SDS011;55941;50.800;4.342;2023-01-25T11:34:16;101.72;;;62.97;;
34832;SDS011;55941;50.800;4.342;2023-01-25T11:39:45;103.47;;;63.40;;
34832;SDS011;55941;50.800;4.342;2023-01-25T11:42:25;96.15;;;61.85;;
34832;SDS011;55941;50.800;4.342;2023-01-25T11:44:59;92.93;;;60.92;;
34832;SDS011;55941;50.800;4.342;2023-01-25T11:47:39;94.80;;;60.78;;
34832;SDS011;55941;50.800;4.342;2023-01-25T12:07:09;106.32;;;64.10;;
34832;SDS011;55941;50.800;4.342;2023-01-25T12:16:14;97.80;;;62.63;;
34832;SDS011;55941;50.800;4.342;2023-01-25T12:26:50;91.28;;;60.65;;
34832;SDS011;55941;50.800;4.342;2023-01-25T12:32:23;91.65;;;59.58;;
34832;SDS011;55941;50.800;4.342;2023-01-25T12:37:40;89.85;;;58.78;;
34832;SDS011;55941;50.800;4.342;2023-01-25T12:40:08;87.30;;;57.63;;
34832;SDS011;55941;50.800;4.342;2023-01-25T12:45:16;97.50;;;59.70;;
34832;SDS011;55941;50.800;4.342;2023-01-25T12:48:09;88.43;;;58.10;;
34832;SDS011;55941;50.800;4.342;2023-01-25T12:50:39;95.07;;;60.30;;
34832;SDS011;55941;50.800;4.342;2023-01-25T12:55:46;103.13;;;61.65;;
34832;SDS011;55941;50.800;4.342;2023-01-25T13:01:03;96.45;;;61.45;;
34832;SDS011;55941;50.800;4.342;2023-01-25T13:06:35;89.10;;;56.97;;
34832;SDS011;55941;50.800;4.342;2023-01-25T13:11:48;95.95;;;61.80;;
34832;SDS011;55941;50.800;4.342;2023-01-25T13:16:41;94.93;;;58.78;;
34832;SDS011;55941;50.800;4.342;2023-01-25T13:21:53;85.10;;;55.00;;
34832;SDS011;55941;50.800;4.342;2023-01-25T13:24:26;83.38;;;56.83;;
34832;SDS011;55941;50.800;4.342;2023-01-25T13:32:11;98.25;;;59.75;;
34832;SDS011;55941;50.800;4.342;2023-01-25T13:37:19;86.05;;;57.65;;
34832;SDS011;55941;50.800;4.342;2023-01-25T13:39:59;95.95;;;59.67;;
34832;SDS011;55941;50.800;4.342;2023-01-25T13:45:43;93.82;;;59.00;;
34832;SDS011;55941;50.800;4.342;2023-01-25T13:48:13;103.13;;;59.65;;
34832;SDS011;55941;50.800;4.342;2023-01-25T13:50:44;97.88;;;59.70;;
34832;SDS011;55941;50.800;4.342;2023-01-25T13:55:45;104.25;;;58.42;;
34832;SDS011;55941;50.800;4.342;2023-01-25T13:58:20;97.63;;;61.65;;
34832;SDS011;55941;50.800;4.342;2023-01-25T14:00:58;92.47;;;60.10;;
34832;SDS011;55941;50.800;4.342;2023-01-25T14:03:32;107.57;;;61.25;;
34832;SDS011;55941;50.800;4.342;2023-01-25T14:06:13;98.57;;;59.58;;
34832;SDS011;55941;50.800;4.342;2023-01-25T14:08:43;94.50;;;59.55;;
34832;SDS011;55941;50.800;4.342;2023-01-25T14:11:16;97.78;;;58.60;;
34832;SDS011;55941;50.800;4.342;2023-01-25T14:13:56;95.20;;;57.95;;
34832;SDS011;55941;50.800;4.342;2023-01-25T14:16:26;97.90;;;55.97;;
34832;SDS011;55941;50.800;4.342;2023-01-25T14:18:54;97.22;;;58.55;;
34832;SDS011;55941;50.800;4.342;2023-01-25T14:21:22;93.10;;;56.00;;
34832;SDS011;55941;50.800;4.342;2023-01-25T14:23:48;91.75;;;57.97;;
34832;SDS011;55941;50.800;4.342;2023-01-25T14:26:17;89.13;;;57.88;;
34832;SDS011;55941;50.800;4.342;2023-01-25T14:28:46;92.72;;;57.42;;
34832;SDS011;55941;50.800;4.342;2023-01-25T14:31:18;90.35;;;58.40;;
34832;SDS011;55941;50.800;4.342;2023-01-25T14:33:50;88.38;;;55.88;;
34832;SDS011;55941;50.800;4.342;2023-01-25T14:36:23;92.05;;;58.25;;
34832;SDS011;55941;50.800;4.342;2023-01-25T14:38:52;94.40;;;60.28;;
34832;SDS011;55941;50.800;4.342;2023-01-25T14:41:30;96.05;;;61.20;;
34832;SDS011;55941;50.800;4.342;2023-01-25T14:44:02;98.07;;;59.63;;
34832;SDS011;55941;50.800;4.342;2023-01-25T14:46:34;106.55;;;63.35;;
34832;SDS011;55941;50.800;4.342;2023-01-25T14:49:08;97.70;;;60.97;;
34832;SDS011;55941;50.800;4.342;2023-01-25T14:51:50;101.20;;;64.50;;
34832;SDS011;55941;50.800;4.342;2023-01-25T14:54:24;108.75;;;64.70;;
34832;SDS011;55941;50.800;4.342;2023-01-25T14:56:54;106.35;;;65.32;;
34832;SDS011;55941;50.800;4.342;2023-01-25T15:01:54;95.72;;;59.45;;
34832;SDS011;55941;50.800;4.342;2023-01-25T15:04:22;102.95;;;64.78;;
34832;SDS011;55941;50.800;4.342;2023-01-25T15:06:52;122.95;;;70.60;;
34832;SDS011;55941;50.800;4.342;2023-01-25T15:09:36;105.32;;;65.82;;
34832;SDS011;55941;50.800;4.342;2023-01-25T15:14:53;116.25;;;66.35;;
34832;SDS011;55941;50.800;4.342;2023-01-25T15:17:36;110.07;;;64.75;;
34832;SDS011;55941;50.800;4.342;2023-01-25T15:22:51;121.38;;;70.88;;
34832;SDS011;55941;50.800;4.342;2023-01-25T15:25:17;114.68;;;69.90;;
34832;SDS011;55941;50.800;4.342;2023-01-25T15:27:43;109.97;;;67.13;;
34832;SDS011;55941;50.800;4.342;2023-01-25T15:30:11;115.80;;;65.53;;
34832;SDS011;55941;50.800;4.342;2023-01-25T15:32:40;114.72;;;66.82;;
34832;SDS011;55941;50.800;4.342;2023-01-25T15:35:11;110.65;;;68.18;;
34832;SDS011;55941;50.800;4.342;2023-01-25T15:37:43;115.78;;;67.18;;
34832;SDS011;55941;50.800;4.342;2023-01-25T15:40:10;118.95;;;70.20;;
34832;SDS011;55941;50.800;4.342;2023-01-25T15:42:37;120.63;;;68.80;;
34832;SDS011;55941;50.800;4.342;2023-01-25T15:45:04;110.82;;;65.70;;
34832;SDS011;55941;50.800;4.342;2023-01-25T15:47:33;120.22;;;69.93;;
34832;SDS011;55941;50.800;4.342;2023-01-25T15:50:01;119.82;;;70.95;;
34832;SDS011;55941;50.800;4.342;2023-01-25T15:52:28;126.82;;;73.15;;
34832;SDS011;55941;50.800;4.342;2023-01-25T15:54:54;129.27;;;71.03;;
34832;SDS011;55941;50.800;4.342;2023-01-25T15:57:27;129.43;;;71.45;;
34832;SDS011;55941;50.800;4.342;2023-01-25T15:59:55;132.82;;;72.13;;
34832;SDS011;55941;50.800;4.342;2023-01-25T16:02:22;129.70;;;71.40;;
34832;SDS011;55941;50.800;4.342;2023-01-25T16:04:50;115.40;;;67.22;;
34832;SDS011;55941;50.800;4.342;2023-01-25T16:07:23;125.38;;;69.82;;
34832;SDS011;55941;50.800;4.342;2023-01-25T16:09:51;119.88;;;69.10;;
34832;SDS011;55941;50.800;4.342;2023-01-25T16:12:17;119.03;;;68.07;;
34832;SDS011;55941;50.800;4.342;2023-01-25T16:14:44;117.10;;;68.10;;
34832;SDS011;55941;50.800;4.342;2023-01-25T16:17:14;122.95;;;69.93;;
34832;SDS011;55941;50.800;4.342;2023-01-25T16:19:44;127.07;;;70.03;;
34832;SDS011;55941;50.800;4.342;2023-01-25T16:22:12;131.70;;;71.55;;
34832;SDS011;55941;50.800;4.342;2023-01-25T16:24:39;130.60;;;70.97;;
34832;SDS011;55941;50.800;4.342;2023-01-25T16:27:07;130.70;;;72.53;;
34832;SDS011;55941;50.800;4.342;2023-01-25T16:29:42;140.13;;;72.80;;
34832;SDS011;55941;50.800;4.342;2023-01-25T16:32:09;130.05;;;73.07;;
34832;SDS011;55941;50.800;4.342;2023-01-25T16:34:36;135.77;;;72.28;;
34832;SDS011;55941;50.800;4.342;2023-01-25T16:37:03;138.18;;;74.28;;
34832;SDS011;55941;50.800;4.342;2023-01-25T16:39:29;140.13;;;73.68;;
34832;SDS011;55941;50.800;4.342;2023-01-25T16:41:56;131.25;;;69.93;;